Startpagina
METAR-TAF:

METAR-TAF

Vliegvelden :

Productieplatform

Hoorn-a, Nederland

breedte: 52-55-05N, lengte: 4-09-01E, hoogte: 41 m

Actueel weer

Dit bericht is 22 minuten geleden gemaakt, om 15:25 UTC
Wind 5 kt uit het noordnoordoosten
Temperatuur 4°C
Vochtigheid 52%
Druk 1019 hPa
Zicht 10 km of meer

METAR: EHQE 201525Z AUTO 02005KT 9999 NSC 04/M05 Q1019 W///H///

Tijdstip: 16:47 (15:47 UTC)


TAF: ontbreekt

Waarnemingen en weersverwachtingen van meer dan 4000 vliegvelden (METAR en TAF).

De beschikbare stations zijn de gele en rode punten op de kaart.

Ga met uw muis naar het station om de naam te zien.

Klik dan om waarnemingen en weersverwachtingen te zien.

kaart wijzigen: klik op de groene knoppen met een zwart kruis om in te zoomen, op de groene knop met een streepje om uit te zoomen of op de groene pijlen voor aangrenzende kaarten.


METAR-TAF: